»·PEaware :: N633FT KSNA-KBUR

N633FT :: KSNA-KBUR

FLIGHT INFORMATION

Flight Status: Arrived
Operator: Privately registered:
United States
More flights under this callsign
Pilot: Michael W. (34822)
Aircraft: Unknown
(TIGR)
More flights by this aircraft type
Origin: KSNA John Wayne-Orange Co
United States
Destination: KBUR Bob Hope-Burbank
United States
More flights between these airports :: More routes between these airports
Route: SLI V23 LAX LAX316 SILEX
File this flight plan on PilotEdge
Remarks: No SID / STAR
Altitude:
(Current/Filed)
6,000ft
Speed:
(Current/Filed)
110kts
Departed: 08-Oct-21 04:23 PM
Arrived: 08-Oct-21 05:02 PM
Distance/Time
Traveled:
40nm/0:39
Distance/Time
To Go:
Arrived

Flight Plot

Page will automatically refresh every two minutes.


Map Options




Map Legend


Flown Route
Filed Route
Departure Airport
Arrival Airport
Navaid (VOR, NDB)
Fix

Horizontal Profiles

Position Reports

Time Latitude Longitude Heading Altitude Ground
Speed
08-Oct-21 15:58 33.672334 -117.866936 210 60ft 0kts
08-Oct-21 15:59 33.672334 -117.866936 210 60ft 0kts
08-Oct-21 16:00 33.672334 -117.866936 210 60ft 0kts
08-Oct-21 16:01 33.672334 -117.866936 210 60ft 0kts
08-Oct-21 16:02 33.672334 -117.866936 210 60ft 0kts
08-Oct-21 16:03 33.672334 -117.866936 210 60ft 0kts
08-Oct-21 16:04 33.672334 -117.866936 210 60ft 0kts
08-Oct-21 16:05 33.672334 -117.866936 210 60ft 0kts
08-Oct-21 16:06 33.672334 -117.866936 210 60ft 0kts
08-Oct-21 16:07 33.672334 -117.866936 210 60ft 0kts
08-Oct-21 16:08 33.672334 -117.866936 210 60ft 0kts
08-Oct-21 16:09 33.672334 -117.866936 210 60ft 0kts
08-Oct-21 16:10 33.672334 -117.866936 210 60ft 0kts
08-Oct-21 16:11 33.672334 -117.866936 210 60ft 0kts
08-Oct-21 16:12 33.672334 -117.866936 210 60ft 0kts
08-Oct-21 16:13 33.672334 -117.866936 210 60ft 0kts
08-Oct-21 16:14 33.672618 -117.867522 316 60ft 1kts
08-Oct-21 16:15 33.674725 -117.866690 28 60ft 10kts
08-Oct-21 16:16 33.678204 -117.864480 27 60ft 16kts
08-Oct-21 16:17 33.680651 -117.863138 321 60ft 0kts
08-Oct-21 16:18 33.680651 -117.863138 321 60ft 0kts
08-Oct-21 16:19 33.680651 -117.863138 321 60ft 0kts
08-Oct-21 16:20 33.680651 -117.863138 321 60ft 0kts
08-Oct-21 16:21 33.681431 -117.864875 276 60ft 12kts
08-Oct-21 16:22 33.667958 -117.874423 212 495ft 85kts
08-Oct-21 16:23 33.644190 -117.893245 213 1025ft 112kts
08-Oct-21 16:24 33.617651 -117.914331 213 1527ft 116kts
08-Oct-21 16:25 33.590496 -117.935904 213 1908ft 123kts
08-Oct-21 16:26 33.565145 -117.961206 240 2035ft 107kts
08-Oct-21 16:27 33.568883 -117.988365 285 2886ft 92kts
08-Oct-21 16:28 33.585622 -118.014770 320 3399ft 108kts
08-Oct-21 16:29 33.609228 -118.038147 320 3902ft 110kts
08-Oct-21 16:30 33.632596 -118.061887 314 4401ft 110kts
08-Oct-21 16:31 33.653896 -118.087865 314 4900ft 108kts
08-Oct-21 16:32 33.674929 -118.113568 314 5398ft 107kts
08-Oct-21 16:33 33.695706 -118.138959 314 5884ft 107kts
08-Oct-21 16:34 33.719038 -118.167442 314 5923ft 125kts
08-Oct-21 16:35 33.743967 -118.197845 314 5906ft 125kts
08-Oct-21 16:36 33.767326 -118.226328 314 5908ft 116kts
08-Oct-21 16:37 33.789993 -118.253971 314 5908ft 115kts
08-Oct-21 16:38 33.812583 -118.281516 314 5908ft 115kts
08-Oct-21 16:39 33.835194 -118.309086 314 5908ft 115kts
08-Oct-21 16:40 33.857804 -118.336651 314 5908ft 115kts
08-Oct-21 16:41 33.880327 -118.364107 314 5908ft 115kts
08-Oct-21 16:42 33.902049 -118.392639 311 5908ft 115kts
08-Oct-21 16:43 33.924139 -118.420799 314 5908ft 115kts
08-Oct-21 16:44 33.950114 -118.443376 326 5908ft 115kts
08-Oct-21 16:45 33.977000 -118.464673 326 5908ft 115kts
08-Oct-21 16:46 34.004243 -118.485239 332 5908ft 115kts
08-Oct-21 16:47 34.032603 -118.503439 332 5908ft 115kts
08-Oct-21 16:48 34.061222 -118.521252 332 5908ft 115kts
08-Oct-21 16:49 34.089827 -118.539051 333 5908ft 115kts
08-Oct-21 16:50 34.120444 -118.555903 337 4738ft 122kts
08-Oct-21 16:51 34.149359 -118.570068 333 3926ft 97kts
08-Oct-21 16:52 34.171928 -118.584142 332 3909ft 92kts
08-Oct-21 16:53 34.190933 -118.572253 62 3908ft 94kts
08-Oct-21 16:54 34.199212 -118.543124 86 3787ft 96kts
08-Oct-21 16:55 34.199617 -118.514389 91 3265ft 96kts
08-Oct-21 16:56 34.199321 -118.492232 90 2913ft 70kts
08-Oct-21 16:57 34.199514 -118.474714 86 2768ft 74kts
08-Oct-21 16:58 34.199017 -118.448040 96 2049ft 88kts
08-Oct-21 16:59 34.198478 -118.416706 93 1545ft 81kts
08-Oct-21 17:00 34.198062 -118.382319 91 1021ft 83kts
08-Oct-21 17:01 34.197829 -118.361688 91 718ft 24kts
08-Oct-21 17:02 34.198600 -118.360252 4 717ft 0kts
08-Oct-21 17:03 34.199308 -118.360243 3 720ft 7kts
08-Oct-21 17:04 34.199657 -118.359675 84 720ft 0kts

Navigation Log

Ident Type
Flight plan parsing failed, navigation log unavailable